createdAt,value
2023-07-22T00:08:21.136Z,14.64
2023-07-22T00:18:25.933Z,14.56
2023-07-22T00:28:28.775Z,14.40
2023-07-22T00:38:33.410Z,14.28
2023-07-22T00:48:36.645Z,14.13
2023-07-22T00:58:41.950Z,14.24
2023-07-22T01:08:45.323Z,14.26
2023-07-22T01:18:49.656Z,14.14
2023-07-22T01:29:03.208Z,14.08
2023-07-22T01:39:07.233Z,14.01
2023-07-22T01:49:13.990Z,13.95
2023-07-22T01:59:16.947Z,13.88
2023-07-22T02:09:21.004Z,13.78
2023-07-22T02:19:24.641Z,13.71
2023-07-22T02:29:32.189Z,13.75
2023-07-22T02:39:34.984Z,13.76
2023-07-22T02:49:40.310Z,13.71
2023-07-22T02:59:44.710Z,13.59
2023-07-22T03:09:48.835Z,13.53
2023-07-22T03:19:52.030Z,13.37
2023-07-22T03:29:56.177Z,13.24
2023-07-22T03:39:58.917Z,13.16
2023-07-22T03:50:21.077Z,13.14
2023-07-22T04:00:23.972Z,13.20
2023-07-22T04:10:28.337Z,13.40
2023-07-22T04:20:31.621Z,13.48
2023-07-22T04:30:35.737Z,13.48
2023-07-22T04:40:39.291Z,13.74
2023-07-22T04:50:46.152Z,13.95
2023-07-22T05:00:49.747Z,14.17
2023-07-22T05:10:54.686Z,14.58
2023-07-22T05:20:57.421Z,14.84
2023-07-22T05:31:02.371Z,14.99
2023-07-22T05:41:05.174Z,15.31
2023-07-22T05:51:09.569Z,15.23
2023-07-22T06:01:13.695Z,15.46
2023-07-22T06:11:18.618Z,15.68
2023-07-22T06:21:21.402Z,15.90
2023-07-22T06:31:25.920Z,15.97
2023-07-22T06:41:28.733Z,16.25
2023-07-22T06:51:33.004Z,16.62
2023-07-22T07:01:35.727Z,16.93
2023-07-22T07:11:40.023Z,17.20
2023-07-22T07:21:42.745Z,17.15
2023-07-22T07:31:47.001Z,17.46
2023-07-22T07:41:49.701Z,18.04
2023-07-22T07:51:54.105Z,18.81
2023-07-22T08:01:57.088Z,18.74
2023-07-22T08:12:01.467Z,18.92
2023-07-22T08:22:04.762Z,18.85
2023-07-22T08:32:09.409Z,19.41
2023-07-22T08:42:15.492Z,19.66
2023-07-22T08:52:20.579Z,19.97
2023-07-22T09:02:23.739Z,20.32
2023-07-22T09:12:28.768Z,20.09
2023-07-22T09:22:32.665Z,20.29
2023-07-22T09:32:38.481Z,20.54
2023-07-22T09:42:41.545Z,21.49
2023-07-22T09:52:48.547Z,21.13
2023-07-22T10:02:51.873Z,20.83
2023-07-22T10:12:58.007Z,20.56
2023-07-22T10:23:01.746Z,20.99
2023-07-22T10:33:06.095Z,20.37
2023-07-22T10:43:08.974Z,19.91
2023-07-22T10:53:14.121Z,19.77
2023-07-22T11:03:16.934Z,19.51
2023-07-22T11:13:21.050Z,19.47
2023-07-22T11:23:26.605Z,19.55
2023-07-22T11:33:41.976Z,19.70
2023-07-22T11:43:44.764Z,19.53
2023-07-22T11:53:50.997Z,19.22
2023-07-22T12:03:58.256Z,18.95
2023-07-22T12:14:14.719Z,18.34
2023-07-22T12:24:18.305Z,17.92
2023-07-22T12:34:22.495Z,17.91
2023-07-22T12:44:25.681Z,17.59
2023-07-22T12:54:29.825Z,17.82
2023-07-22T13:04:32.569Z,17.52
2023-07-22T13:14:39.778Z,17.60
2023-07-22T13:24:43.040Z,17.96
2023-07-22T13:34:47.221Z,18.03
2023-07-22T13:44:50.993Z,18.18
2023-07-22T13:54:55.331Z,18.57
2023-07-22T14:04:58.105Z,18.36
2023-07-22T14:15:02.143Z,18.38
2023-07-22T14:25:05.394Z,17.62
2023-07-22T14:35:10.474Z,17.21
2023-07-22T14:45:13.238Z,17.07
2023-07-22T14:55:17.316Z,17.17
2023-07-22T15:05:20.163Z,17.23
2023-07-22T15:15:24.354Z,17.44
2023-07-22T15:25:26.997Z,17.50
2023-07-22T15:35:31.092Z,17.53
2023-07-22T15:45:34.295Z,17.29
2023-07-22T15:55:38.863Z,17.31
2023-07-22T16:05:44.101Z,17.05
2023-07-22T16:15:49.429Z,17.03
2023-07-22T16:25:52.512Z,16.60
2023-07-22T16:35:56.805Z,16.73
2023-07-22T16:45:59.740Z,16.74
2023-07-22T16:56:04.029Z,16.74
2023-07-22T17:06:06.916Z,16.49
2023-07-22T17:16:11.577Z,16.65
2023-07-22T17:26:14.413Z,16.60
2023-07-22T17:36:18.564Z,16.75
2023-07-22T17:46:21.472Z,16.72
2023-07-22T17:56:25.618Z,16.88
2023-07-22T18:06:28.610Z,16.70
2023-07-22T18:16:33.000Z,16.54
2023-07-22T18:26:36.637Z,16.52
2023-07-22T18:36:42.353Z,16.54
2023-07-22T18:46:53.178Z,16.48
2023-07-22T18:56:57.579Z,16.54
2023-07-22T19:07:08.134Z,16.54
2023-07-22T19:17:12.721Z,16.48
2023-07-22T19:27:18.373Z,16.52
2023-07-22T19:37:23.085Z,16.41
2023-07-22T19:47:26.117Z,16.41
2023-07-22T19:57:30.515Z,16.31
2023-07-22T20:07:33.313Z,16.17
2023-07-22T20:17:37.681Z,16.25
2023-07-22T20:27:41.354Z,16.21
2023-07-22T20:37:46.324Z,16.10
2023-07-22T20:47:49.506Z,15.93
2023-07-22T20:57:54.680Z,15.96
2023-07-22T21:07:57.393Z,15.83
2023-07-22T21:18:03.180Z,15.93
2023-07-22T21:28:06.338Z,15.89
2023-07-22T21:38:10.701Z,15.99
2023-07-22T21:48:13.799Z,15.98
2023-07-22T21:58:17.930Z,15.98
2023-07-22T22:09:18.904Z,15.82
2023-07-22T22:19:59.703Z,15.77
2023-07-22T22:30:19.030Z,15.82
2023-07-22T22:52:13.917Z,15.98
2023-07-22T23:02:24.751Z,16.03
2023-07-22T23:12:27.639Z,15.95
2023-07-22T23:22:31.728Z,15.91
2023-07-22T23:32:36.466Z,15.90
2023-07-22T23:42:40.485Z,15.88
2023-07-22T23:52:46.462Z,15.88
